createdAt,value
2023-04-30T00:00:46.641Z,8.65
2023-04-30T00:01:46.727Z,8.66
2023-04-30T00:02:46.870Z,8.55
2023-04-30T00:03:46.816Z,8.53
2023-04-30T00:04:46.727Z,8.56
2023-04-30T00:05:46.745Z,8.50
2023-04-30T00:06:46.856Z,8.47
2023-04-30T00:07:46.796Z,8.44
2023-04-30T00:08:46.858Z,8.41
2023-04-30T00:09:46.832Z,8.43
2023-04-30T00:10:46.851Z,8.30
2023-04-30T00:11:46.875Z,8.33
2023-04-30T00:12:46.893Z,8.28
2023-04-30T00:13:46.921Z,8.30
2023-04-30T00:14:46.938Z,8.29
2023-04-30T00:15:46.958Z,8.28
2023-04-30T00:16:47.043Z,8.23
2023-04-30T00:17:47.025Z,8.12
2023-04-30T00:18:47.018Z,8.10
2023-04-30T00:19:47.040Z,8.11
2023-04-30T00:20:47.059Z,8.10
2023-04-30T00:21:47.081Z,8.16
2023-04-30T00:22:47.102Z,8.15
2023-04-30T00:23:47.125Z,8.18
2023-04-30T00:24:47.142Z,8.18
2023-04-30T00:25:47.166Z,8.16
2023-04-30T00:26:47.191Z,8.11
2023-04-30T00:27:47.205Z,8.15
2023-04-30T00:28:47.230Z,8.08
2023-04-30T00:29:47.251Z,8.15
2023-04-30T00:30:47.274Z,8.11
2023-04-30T00:31:47.304Z,8.11
2023-04-30T00:32:47.340Z,8.05
2023-04-30T00:33:47.328Z,7.98
2023-04-30T00:34:47.352Z,8.01
2023-04-30T00:35:47.387Z,7.92
2023-04-30T00:36:47.390Z,7.89
2023-04-30T00:37:47.411Z,7.86
2023-04-30T00:38:47.435Z,7.89
2023-04-30T00:39:47.456Z,7.86
2023-04-30T00:40:47.472Z,7.80
2023-04-30T00:41:47.490Z,7.86
2023-04-30T00:42:47.514Z,7.85
2023-04-30T00:43:47.538Z,7.85
2023-04-30T00:44:47.562Z,7.85
2023-04-30T00:45:47.613Z,7.95
2023-04-30T00:46:47.598Z,7.95
2023-04-30T00:47:47.669Z,7.87
2023-04-30T00:48:47.644Z,7.92
2023-04-30T00:49:47.662Z,7.92
2023-04-30T00:50:47.694Z,7.90
2023-04-30T00:51:47.716Z,7.86
2023-04-30T00:52:47.730Z,7.83
2023-04-30T00:53:47.740Z,7.83
2023-04-30T00:54:47.779Z,7.83
2023-04-30T00:55:47.784Z,7.90
2023-04-30T00:56:47.808Z,7.85
2023-04-30T00:57:47.817Z,7.82
2023-04-30T00:58:47.846Z,7.80
2023-04-30T00:59:47.889Z,7.82
2023-04-30T01:00:47.885Z,7.82
2023-04-30T01:01:48.084Z,7.83
2023-04-30T01:02:47.971Z,7.75
2023-04-30T01:03:48.054Z,7.86
2023-04-30T01:04:47.994Z,7.69
2023-04-30T01:05:47.991Z,7.71
2023-04-30T01:06:48.005Z,7.68
2023-04-30T01:07:48.029Z,7.77
2023-04-30T01:08:48.052Z,7.72
2023-04-30T01:09:48.068Z,7.77
2023-04-30T01:10:48.097Z,7.72
2023-04-30T01:11:48.116Z,7.77
2023-04-30T01:12:48.134Z,7.64
2023-04-30T01:13:48.151Z,7.69
2023-04-30T01:14:48.169Z,7.61
2023-04-30T01:15:48.192Z,7.68
2023-04-30T01:16:48.206Z,7.67
2023-04-30T01:17:48.275Z,7.64
2023-04-30T01:18:48.345Z,7.67
2023-04-30T01:19:48.283Z,7.53
2023-04-30T01:20:48.292Z,7.53
2023-04-30T01:21:48.312Z,7.58
2023-04-30T01:22:48.341Z,7.55
2023-04-30T01:23:48.369Z,7.50
2023-04-30T01:24:48.372Z,7.52
2023-04-30T01:25:48.398Z,7.45
2023-04-30T01:26:48.413Z,7.46
2023-04-30T01:27:48.446Z,7.45
2023-04-30T01:28:48.453Z,7.45
2023-04-30T01:29:48.483Z,7.45
2023-04-30T01:30:48.495Z,7.45
2023-04-30T01:31:48.603Z,7.49
2023-04-30T01:32:48.567Z,7.34
2023-04-30T01:33:48.554Z,7.30
2023-04-30T01:34:48.571Z,7.30
2023-04-30T01:35:48.595Z,7.24
2023-04-30T01:36:48.624Z,7.25
2023-04-30T01:37:48.637Z,7.24
2023-04-30T01:38:48.660Z,7.21
2023-04-30T01:39:48.680Z,7.15
2023-04-30T01:40:48.708Z,7.15
2023-04-30T01:41:48.726Z,7.12
2023-04-30T01:42:48.744Z,7.13
2023-04-30T01:43:48.759Z,7.09
2023-04-30T01:44:48.790Z,7.10
2023-04-30T01:45:48.812Z,7.10
2023-04-30T01:46:48.825Z,7.09
2023-04-30T01:47:48.899Z,7.09
2023-04-30T01:48:48.860Z,7.03
2023-04-30T01:49:48.884Z,6.92
2023-04-30T01:50:48.903Z,6.92
2023-04-30T01:51:48.925Z,6.92
2023-04-30T01:52:48.950Z,7.03
2023-04-30T01:53:48.965Z,6.99
2023-04-30T01:54:49.005Z,6.97
2023-04-30T01:55:49.006Z,6.94
2023-04-30T01:56:49.023Z,6.94
2023-04-30T01:57:49.046Z,6.84
2023-04-30T01:58:49.068Z,6.91
2023-04-30T01:59:49.088Z,6.91
2023-04-30T02:00:49.102Z,6.91
2023-04-30T02:01:49.153Z,6.91
2023-04-30T02:02:49.184Z,6.97
2023-04-30T02:03:49.302Z,6.91
2023-04-30T02:04:49.189Z,6.91
2023-04-30T02:05:49.204Z,6.94
2023-04-30T02:06:49.221Z,6.88
2023-04-30T02:07:49.245Z,6.84
2023-04-30T02:08:49.274Z,6.85
2023-04-30T02:09:49.283Z,6.89
2023-04-30T02:10:49.306Z,6.84
2023-04-30T02:11:49.321Z,6.81
2023-04-30T02:12:49.345Z,6.84
2023-04-30T02:13:49.363Z,6.77
2023-04-30T02:14:49.389Z,6.81
2023-04-30T02:15:49.410Z,6.80
2023-04-30T02:16:49.426Z,6.81
2023-04-30T02:17:49.494Z,6.85
2023-04-30T02:18:49.464Z,6.77
2023-04-30T02:19:49.482Z,6.79
2023-04-30T02:20:49.500Z,6.70
2023-04-30T02:21:49.524Z,6.69
2023-04-30T02:22:49.538Z,6.73
2023-04-30T02:23:49.559Z,6.73
2023-04-30T02:24:49.579Z,6.70
2023-04-30T02:25:49.599Z,6.73
2023-04-30T02:26:49.622Z,6.70
2023-04-30T02:27:49.640Z,6.73
2023-04-30T02:28:49.673Z,6.73
2023-04-30T02:29:49.679Z,6.77
2023-04-30T02:30:49.704Z,6.74
2023-04-30T02:31:49.736Z,6.58
2023-04-30T02:32:49.757Z,6.69
2023-04-30T02:33:49.786Z,6.67
2023-04-30T02:34:49.782Z,6.67
2023-04-30T02:35:49.807Z,6.71
2023-04-30T02:36:49.832Z,6.69
2023-04-30T02:37:49.845Z,6.66
2023-04-30T02:38:49.860Z,6.69
2023-04-30T02:39:49.878Z,6.69
2023-04-30T02:40:49.897Z,6.66
2023-04-30T02:41:49.915Z,6.64
2023-04-30T02:42:49.938Z,6.66
2023-04-30T02:43:49.972Z,6.69
2023-04-30T02:44:49.988Z,6.67
2023-04-30T02:45:50.059Z,6.70
2023-04-30T02:46:50.023Z,6.66
2023-04-30T02:47:50.060Z,6.66
2023-04-30T02:48:50.069Z,6.66
2023-04-30T02:49:50.086Z,6.73
2023-04-30T02:50:50.104Z,6.64
2023-04-30T02:51:50.123Z,6.70
2023-04-30T02:52:50.135Z,6.70
2023-04-30T02:53:50.155Z,6.59
2023-04-30T02:54:50.175Z,6.64
2023-04-30T02:55:50.197Z,6.66
2023-04-30T02:56:50.221Z,6.70
2023-04-30T02:57:50.251Z,6.64
2023-04-30T02:58:50.253Z,6.62
2023-04-30T02:59:50.290Z,6.70
2023-04-30T03:00:50.304Z,6.70
2023-04-30T03:01:50.418Z,6.69
2023-04-30T03:02:50.392Z,6.70
2023-04-30T03:03:50.360Z,6.66
2023-04-30T03:04:50.371Z,6.64
2023-04-30T03:05:50.407Z,6.69
2023-04-30T03:06:50.412Z,6.64
2023-04-30T03:07:50.436Z,6.54
2023-04-30T03:08:50.449Z,6.55
2023-04-30T03:09:50.482Z,6.58
2023-04-30T03:10:50.493Z,6.58
2023-04-30T03:11:50.515Z,6.56
2023-04-30T03:12:50.528Z,6.56
2023-04-30T03:13:50.553Z,6.56
2023-04-30T03:14:50.578Z,6.54
2023-04-30T03:15:50.598Z,6.51
2023-04-30T03:16:50.608Z,6.55
2023-04-30T03:17:50.643Z,6.54
2023-04-30T03:18:50.651Z,6.54
2023-04-30T03:19:50.670Z,6.52
2023-04-30T03:20:50.685Z,6.46
2023-04-30T03:21:50.711Z,6.48
2023-04-30T03:22:50.743Z,6.46
2023-04-30T03:23:50.763Z,6.46
2023-04-30T03:24:50.794Z,6.41
2023-04-30T03:25:50.800Z,6.48
2023-04-30T03:26:50.815Z,6.38
2023-04-30T03:27:50.830Z,6.36
2023-04-30T03:28:50.872Z,6.33
2023-04-30T03:29:50.872Z,6.34
2023-04-30T03:30:50.888Z,6.36
2023-04-30T03:31:50.938Z,6.38
2023-04-30T03:32:50.942Z,6.22
2023-04-30T03:33:51.001Z,6.30
2023-04-30T03:34:50.976Z,6.22
2023-04-30T03:35:51.020Z,6.19
2023-04-30T03:36:51.022Z,6.17
2023-04-30T03:37:51.033Z,6.25
2023-04-30T03:38:51.050Z,6.17
2023-04-30T03:39:51.072Z,6.18
2023-04-30T03:40:51.091Z,6.22
2023-04-30T03:41:51.107Z,6.18
2023-04-30T03:42:51.528Z,6.18
2023-04-30T03:43:51.148Z,6.21
2023-04-30T03:44:51.166Z,6.22
2023-04-30T03:45:51.238Z,6.21
2023-04-30T03:46:51.203Z,6.22
2023-04-30T03:47:51.246Z,6.17
2023-04-30T03:48:51.243Z,6.17
2023-04-30T03:49:51.286Z,6.18
2023-04-30T03:50:51.281Z,6.15
2023-04-30T03:51:51.308Z,6.14
2023-04-30T03:52:51.326Z,6.12
2023-04-30T03:53:51.351Z,6.09
2023-04-30T03:54:51.375Z,6.03
2023-04-30T03:55:51.383Z,5.94
2023-04-30T03:56:51.411Z,5.96
2023-04-30T03:57:51.424Z,6.03
2023-04-30T03:58:51.444Z,5.96
2023-04-30T03:59:51.474Z,5.96
2023-04-30T04:00:51.482Z,5.96
2023-04-30T04:01:51.516Z,5.94
2023-04-30T04:02:51.570Z,5.94
2023-04-30T04:03:51.602Z,5.97
2023-04-30T04:04:51.560Z,5.90
2023-04-30T04:05:51.582Z,5.99
2023-04-30T04:06:51.602Z,5.97
2023-04-30T04:07:51.618Z,5.97
2023-04-30T04:08:51.639Z,5.93
2023-04-30T04:09:51.805Z,5.99
2023-04-30T04:10:51.678Z,5.97
2023-04-30T04:11:51.700Z,6.04
2023-04-30T04:12:51.728Z,6.03
2023-04-30T04:13:51.743Z,5.99
2023-04-30T04:14:51.756Z,6.15
2023-04-30T04:15:51.793Z,6.09
2023-04-30T04:16:51.796Z,6.08
2023-04-30T04:17:51.857Z,6.12
2023-04-30T04:18:51.844Z,6.09
2023-04-30T04:19:52.152Z,6.06
2023-04-30T04:20:51.871Z,6.15
2023-04-30T04:21:51.902Z,6.14
2023-04-30T04:22:51.912Z,6.11
2023-04-30T04:23:51.939Z,6.14
2023-04-30T04:24:51.950Z,6.14
2023-04-30T04:25:51.980Z,6.21
2023-04-30T04:26:51.996Z,6.22
2023-04-30T04:27:52.019Z,6.17
2023-04-30T04:28:52.031Z,6.27
2023-04-30T04:29:52.158Z,6.25
2023-04-30T04:30:52.079Z,6.25
2023-04-30T04:31:52.108Z,6.30
2023-04-30T04:32:52.142Z,6.38
2023-04-30T04:33:52.129Z,6.33
2023-04-30T04:34:52.161Z,6.31
2023-04-30T04:35:52.176Z,6.33
2023-04-30T04:36:52.187Z,6.46
2023-04-30T04:37:52.206Z,6.41
2023-04-30T04:38:52.227Z,6.44
2023-04-30T04:39:52.456Z,6.54
2023-04-30T04:40:52.267Z,6.48
2023-04-30T04:41:52.289Z,6.58
2023-04-30T04:42:52.321Z,6.44
2023-04-30T04:43:52.325Z,6.52
2023-04-30T04:44:52.346Z,6.48
2023-04-30T04:45:52.427Z,6.46
2023-04-30T04:46:52.428Z,6.48
2023-04-30T04:47:52.529Z,6.58
2023-04-30T04:48:52.425Z,6.74
2023-04-30T04:49:52.894Z,6.92
2023-04-30T04:50:52.459Z,7.24
2023-04-30T04:51:52.494Z,7.49
2023-04-30T04:52:52.512Z,7.79
2023-04-30T04:53:52.532Z,8.25
2023-04-30T04:54:52.544Z,8.56
2023-04-30T04:55:52.560Z,8.89
2023-04-30T04:56:52.608Z,9.28
2023-04-30T04:57:52.609Z,9.57
2023-04-30T04:58:52.646Z,9.75
2023-04-30T04:59:53.036Z,9.89
2023-04-30T05:00:52.664Z,10.11
2023-04-30T05:01:52.740Z,10.36
2023-04-30T05:02:52.791Z,10.61
2023-04-30T05:03:52.811Z,10.82
2023-04-30T05:04:52.754Z,10.91
2023-04-30T05:05:52.784Z,11.04
2023-04-30T05:06:52.788Z,11.11
2023-04-30T05:07:52.828Z,11.09
2023-04-30T05:08:52.838Z,10.92
2023-04-30T05:09:53.190Z,10.86
2023-04-30T05:10:52.880Z,11.00
2023-04-30T05:11:52.903Z,11.15
2023-04-30T05:12:52.938Z,11.25
2023-04-30T05:13:52.948Z,11.33
2023-04-30T05:14:52.979Z,11.40
2023-04-30T05:15:53.054Z,11.40
2023-04-30T05:16:53.019Z,11.47
2023-04-30T05:17:53.109Z,11.44
2023-04-30T05:18:53.055Z,11.55
2023-04-30T05:19:53.582Z,11.47
2023-04-30T05:20:53.104Z,11.46
2023-04-30T05:21:53.125Z,11.32
2023-04-30T05:22:53.145Z,11.42
2023-04-30T05:23:53.741Z,11.47
2023-04-30T05:24:53.184Z,11.43
2023-04-30T05:25:53.225Z,11.55
2023-04-30T05:26:53.235Z,11.52
2023-04-30T05:27:53.275Z,11.49
2023-04-30T05:28:53.320Z,11.60
2023-04-30T05:29:53.493Z,11.60
2023-04-30T05:30:53.324Z,11.55
2023-04-30T05:31:53.409Z,11.49
2023-04-30T05:32:53.393Z,11.33
2023-04-30T05:33:53.393Z,11.36
2023-04-30T05:34:53.417Z,11.42
2023-04-30T05:35:53.445Z,11.42
2023-04-30T05:36:53.456Z,11.35
2023-04-30T05:37:53.497Z,11.10
2023-04-30T05:38:53.500Z,11.04
2023-04-30T05:39:53.647Z,11.17
2023-04-30T05:40:53.549Z,11.17
2023-04-30T05:41:53.621Z,11.25
2023-04-30T05:42:53.592Z,11.42
2023-04-30T05:43:53.616Z,11.57
2023-04-30T05:44:53.640Z,11.72
2023-04-30T05:45:53.720Z,11.65
2023-04-30T05:46:53.681Z,11.69
2023-04-30T05:47:53.745Z,11.70
2023-04-30T05:48:53.739Z,11.54
2023-04-30T05:49:53.992Z,11.40
2023-04-30T05:50:53.855Z,11.40
2023-04-30T05:51:53.799Z,11.49
2023-04-30T05:52:53.822Z,11.49
2023-04-30T05:53:53.840Z,11.39
2023-04-30T05:54:53.872Z,11.27
2023-04-30T05:55:53.885Z,11.22
2023-04-30T05:56:53.907Z,11.11
2023-04-30T05:57:53.944Z,11.15
2023-04-30T05:58:53.948Z,11.09
2023-04-30T05:59:54.299Z,11.07
2023-04-30T06:00:54.001Z,11.15
2023-04-30T06:01:54.039Z,11.27
2023-04-30T06:02:54.102Z,11.39
2023-04-30T06:03:54.067Z,11.54
2023-04-30T06:04:54.166Z,11.73
2023-04-30T06:05:54.188Z,11.82
2023-04-30T06:06:54.147Z,11.98
2023-04-30T06:07:54.165Z,12.16
2023-04-30T06:08:54.189Z,12.21
2023-04-30T06:09:54.422Z,12.45
2023-04-30T06:10:54.225Z,12.65
2023-04-30T06:11:54.259Z,12.62
2023-04-30T06:12:54.275Z,12.72
2023-04-30T06:13:54.310Z,12.95
2023-04-30T06:14:54.355Z,13.03
2023-04-30T06:15:54.366Z,13.25
2023-04-30T06:16:54.473Z,13.32
2023-04-30T06:17:54.457Z,13.57
2023-04-30T06:18:54.443Z,13.73
2023-04-30T06:19:54.764Z,13.89
2023-04-30T06:20:54.515Z,14.06
2023-04-30T06:21:54.507Z,14.15
2023-04-30T06:22:54.557Z,14.39
2023-04-30T06:23:54.589Z,14.73
2023-04-30T06:24:54.602Z,15.09
2023-04-30T06:25:54.621Z,15.34
2023-04-30T06:26:54.637Z,15.46
2023-04-30T06:27:54.702Z,15.46
2023-04-30T06:28:54.688Z,15.62
2023-04-30T06:29:54.958Z,15.82
2023-04-30T06:30:54.806Z,15.93
2023-04-30T06:31:54.928Z,16.09
2023-04-30T06:32:54.837Z,16.12
2023-04-30T06:33:54.839Z,16.09
2023-04-30T06:34:54.864Z,16.09
2023-04-30T06:35:54.888Z,16.01
2023-04-30T06:36:54.919Z,15.92
2023-04-30T06:37:54.961Z,15.64
2023-04-30T06:38:54.966Z,15.39
2023-04-30T06:39:55.224Z,15.16
2023-04-30T06:40:55.014Z,14.98
2023-04-30T06:41:55.046Z,14.98
2023-04-30T06:42:55.056Z,14.83
2023-04-30T06:43:55.077Z,14.77
2023-04-30T06:44:55.130Z,14.55
2023-04-30T06:45:55.163Z,14.37
2023-04-30T06:46:55.167Z,14.25
2023-04-30T06:47:55.238Z,14.22
2023-04-30T06:48:55.211Z,14.17
2023-04-30T06:49:55.515Z,14.21
2023-04-30T06:50:55.269Z,14.28
2023-04-30T06:51:55.300Z,14.45
2023-04-30T06:52:55.322Z,14.55
2023-04-30T06:53:55.361Z,14.69
2023-04-30T06:54:55.385Z,14.73
2023-04-30T06:55:55.430Z,14.77
2023-04-30T06:56:55.427Z,14.75
2023-04-30T06:57:55.459Z,14.86
2023-04-30T06:58:55.490Z,14.68
2023-04-30T06:59:55.729Z,14.65
2023-04-30T07:00:55.543Z,14.52
2023-04-30T07:01:55.619Z,14.50
2023-04-30T07:02:55.723Z,14.40
2023-04-30T07:03:55.892Z,14.24
2023-04-30T07:04:55.654Z,14.12
2023-04-30T07:05:55.691Z,13.92
2023-04-30T07:06:55.704Z,13.73
2023-04-30T07:07:55.770Z,13.66
2023-04-30T07:08:55.766Z,13.52
2023-04-30T07:09:56.313Z,13.39
2023-04-30T07:10:55.813Z,13.22
2023-04-30T07:11:55.837Z,13.14
2023-04-30T07:12:55.857Z,12.89
2023-04-30T07:13:55.904Z,12.92
2023-04-30T07:14:55.920Z,12.78
2023-04-30T07:15:55.950Z,12.67
2023-04-30T07:16:55.959Z,12.59
2023-04-30T07:17:56.044Z,12.59
2023-04-30T07:18:56.018Z,12.53
2023-04-30T07:19:56.299Z,12.54
2023-04-30T07:20:56.052Z,12.60
2023-04-30T07:21:56.076Z,12.65
2023-04-30T07:22:56.103Z,12.56
2023-04-30T07:23:56.140Z,12.45
2023-04-30T07:24:56.149Z,12.31
2023-04-30T07:25:56.176Z,12.27
2023-04-30T07:26:56.197Z,12.13
2023-04-30T07:27:56.224Z,12.19
2023-04-30T07:28:56.245Z,12.17
2023-04-30T07:29:56.908Z,12.12
2023-04-30T07:30:56.291Z,12.16
2023-04-30T07:31:56.417Z,12.09
2023-04-30T07:32:56.392Z,12.17
2023-04-30T07:33:56.360Z,12.29
2023-04-30T07:34:56.388Z,12.28
2023-04-30T07:35:56.414Z,12.14
2023-04-30T07:36:56.434Z,12.19
2023-04-30T07:37:56.459Z,12.12
2023-04-30T07:38:56.490Z,12.09
2023-04-30T07:39:56.734Z,12.17
2023-04-30T07:40:56.527Z,12.14
2023-04-30T07:41:56.560Z,12.24
2023-04-30T07:42:56.613Z,12.27
2023-04-30T07:43:56.598Z,12.42
2023-04-30T07:44:56.631Z,12.60
2023-04-30T07:45:56.651Z,12.62
2023-04-30T07:46:56.661Z,12.67
2023-04-30T07:47:56.787Z,12.71
2023-04-30T07:48:56.710Z,12.71
2023-04-30T07:49:56.893Z,12.71
2023-04-30T07:50:56.758Z,12.64
2023-04-30T07:51:56.802Z,12.60
2023-04-30T07:52:56.809Z,12.53
2023-04-30T07:53:56.821Z,12.41
2023-04-30T07:54:56.856Z,12.47
2023-04-30T07:55:56.878Z,12.45
2023-04-30T07:56:56.973Z,12.50
2023-04-30T07:57:56.949Z,12.71
2023-04-30T07:58:56.944Z,12.72
2023-04-30T07:59:57.141Z,12.85
2023-04-30T08:00:56.996Z,12.92
2023-04-30T08:01:57.182Z,12.92
2023-04-30T08:02:57.155Z,12.86
2023-04-30T08:03:57.199Z,12.93
2023-04-30T08:04:57.087Z,12.90
2023-04-30T08:05:57.167Z,12.89
2023-04-30T08:06:57.130Z,12.96
2023-04-30T08:07:57.156Z,12.95
2023-04-30T08:08:57.177Z,12.90
2023-04-30T08:09:57.380Z,13.07
2023-04-30T08:10:57.226Z,13.08
2023-04-30T08:11:57.251Z,13.14
2023-04-30T08:12:57.282Z,13.19
2023-04-30T08:13:57.295Z,13.17
2023-04-30T08:14:57.332Z,13.22
2023-04-30T08:15:57.347Z,13.23
2023-04-30T08:16:57.460Z,13.19
2023-04-30T08:17:57.457Z,13.26
2023-04-30T08:18:57.410Z,13.29
2023-04-30T08:19:57.434Z,13.39
2023-04-30T08:20:57.472Z,13.38
2023-04-30T08:21:57.490Z,13.52
2023-04-30T08:22:57.500Z,13.42
2023-04-30T08:23:57.532Z,13.32
2023-04-30T08:24:57.570Z,13.17
2023-04-30T08:25:57.578Z,13.33
2023-04-30T08:26:57.652Z,13.20
2023-04-30T08:27:57.621Z,13.36
2023-04-30T08:28:57.644Z,13.30
2023-04-30T08:29:57.834Z,13.36
2023-04-30T08:30:57.690Z,13.45
2023-04-30T08:31:57.766Z,13.41
2023-04-30T08:32:57.936Z,13.45
2023-04-30T08:33:57.991Z,13.49
2023-04-30T08:34:57.796Z,13.59
2023-04-30T08:35:57.804Z,13.51
2023-04-30T08:36:57.830Z,13.30
2023-04-30T08:37:57.850Z,13.30
2023-04-30T08:38:57.878Z,13.26
2023-04-30T08:39:57.900Z,13.12
2023-04-30T08:40:58.072Z,13.28
2023-04-30T08:41:57.951Z,13.33
2023-04-30T08:42:57.971Z,13.20
2023-04-30T08:43:57.993Z,13.14
2023-04-30T08:44:58.018Z,13.01
2023-04-30T08:45:58.061Z,13.10
2023-04-30T08:46:58.067Z,13.04
2023-04-30T08:47:58.180Z,13.15
2023-04-30T08:48:58.116Z,13.15
2023-04-30T08:49:58.166Z,13.22
2023-04-30T08:50:58.220Z,13.33
2023-04-30T08:51:58.180Z,13.38
2023-04-30T08:52:58.209Z,13.33
2023-04-30T08:53:58.229Z,13.25
2023-04-30T08:54:58.401Z,13.12
2023-04-30T08:55:58.286Z,13.20
2023-04-30T08:56:58.295Z,13.17
2023-04-30T08:57:58.328Z,13.17
2023-04-30T08:58:58.342Z,13.22
2023-04-30T08:59:58.366Z,13.29
2023-04-30T09:00:58.388Z,13.39
2023-04-30T09:01:58.515Z,13.49
2023-04-30T09:02:58.508Z,13.55
2023-04-30T09:03:58.584Z,13.66
2023-04-30T09:04:58.483Z,13.62
2023-04-30T09:05:58.526Z,13.54
2023-04-30T09:06:58.529Z,13.59
2023-04-30T09:08:03.772Z,13.55
2023-04-30T09:08:58.571Z,13.57
2023-04-30T09:09:58.602Z,13.69
2023-04-30T09:10:58.624Z,13.71
2023-04-30T09:11:58.645Z,13.75
2023-04-30T09:12:58.668Z,13.79
2023-04-30T09:13:58.693Z,13.88
2023-04-30T09:14:58.741Z,13.88
2023-04-30T09:15:58.770Z,13.96
2023-04-30T09:16:58.764Z,13.91
2023-04-30T09:17:58.815Z,13.85
2023-04-30T09:18:58.819Z,13.85
2023-04-30T09:19:58.833Z,13.92
2023-04-30T09:20:58.863Z,13.91
2023-04-30T09:21:59.083Z,13.84
2023-04-30T09:22:58.912Z,13.91
2023-04-30T09:23:58.937Z,13.89
2023-04-30T09:24:58.950Z,13.87
2023-04-30T09:25:58.980Z,13.87
2023-04-30T09:26:59.002Z,13.87
2023-04-30T09:27:59.021Z,13.92
2023-04-30T09:28:59.071Z,13.91
2023-04-30T09:29:59.072Z,13.92
2023-04-30T09:30:59.105Z,13.89
2023-04-30T09:31:59.138Z,14.02
2023-04-30T09:32:59.174Z,13.97
2023-04-30T09:33:59.167Z,13.97
2023-04-30T09:34:59.199Z,13.99
2023-04-30T09:35:59.216Z,14.02
2023-04-30T09:36:59.232Z,14.09
2023-04-30T09:37:59.359Z,14.15
2023-04-30T09:38:59.288Z,14.12
2023-04-30T09:39:59.304Z,14.14
2023-04-30T09:40:59.336Z,14.17
2023-04-30T09:41:59.374Z,14.20
2023-04-30T09:42:59.398Z,14.20
2023-04-30T09:43:59.420Z,14.45
2023-04-30T09:44:59.427Z,14.46
2023-04-30T09:45:59.551Z,14.39
2023-04-30T09:46:59.657Z,14.42
2023-04-30T09:48:08.975Z,14.36
2023-04-30T09:48:59.515Z,14.29
2023-04-30T09:49:59.540Z,14.27
2023-04-30T09:50:59.581Z,14.24
2023-04-30T09:51:59.618Z,14.35
2023-04-30T09:52:59.616Z,14.33
2023-04-30T09:53:59.667Z,14.43
2023-04-30T09:54:59.683Z,14.43
2023-04-30T09:55:59.698Z,14.36
2023-04-30T09:56:59.709Z,14.46
2023-04-30T09:57:59.729Z,14.43
2023-04-30T09:58:59.750Z,14.43
2023-04-30T09:59:59.780Z,14.37
2023-04-30T10:00:59.829Z,14.52
2023-04-30T10:01:59.837Z,14.52
2023-04-30T10:02:59.886Z,14.69
2023-04-30T10:03:59.901Z,14.81
2023-04-30T10:04:59.896Z,14.98
2023-04-30T10:05:59.923Z,14.86
2023-04-30T10:06:59.941Z,14.92
2023-04-30T10:07:59.973Z,15.02
2023-04-30T10:08:59.991Z,15.10
2023-04-30T10:10:00.019Z,15.19
2023-04-30T10:11:00.061Z,15.19
2023-04-30T10:12:00.079Z,15.28
2023-04-30T10:13:00.101Z,15.23
2023-04-30T10:14:00.106Z,15.19
2023-04-30T10:15:00.156Z,15.19
2023-04-30T10:16:00.192Z,15.19
2023-04-30T10:17:00.262Z,15.20
2023-04-30T10:18:00.284Z,15.16
2023-04-30T10:19:00.237Z,15.11
2023-04-30T10:20:00.278Z,15.10
2023-04-30T10:21:00.282Z,15.14
2023-04-30T10:22:00.307Z,15.25
2023-04-30T10:23:00.343Z,15.21
2023-04-30T10:24:00.355Z,15.21
2023-04-30T10:25:00.379Z,15.25
2023-04-30T10:26:00.403Z,15.20
2023-04-30T10:27:00.425Z,15.11
2023-04-30T10:28:01.132Z,15.10
2023-04-30T10:29:00.478Z,15.14
2023-04-30T10:30:00.505Z,15.02
2023-04-30T10:31:00.522Z,15.07
2023-04-30T10:32:00.570Z,15.19
2023-04-30T10:33:00.616Z,15.17
2023-04-30T10:34:00.594Z,15.21
2023-04-30T10:35:00.618Z,15.17
2023-04-30T10:36:00.653Z,15.03
2023-04-30T10:37:00.667Z,15.14
2023-04-30T10:38:00.692Z,15.14
2023-04-30T10:39:00.718Z,15.20
2023-04-30T10:40:00.760Z,15.17
2023-04-30T10:41:00.764Z,15.27
2023-04-30T10:42:00.785Z,15.23
2023-04-30T10:43:00.817Z,15.20
2023-04-30T10:44:01.993Z,15.36
2023-04-30T10:45:00.872Z,15.43
2023-04-30T10:46:00.945Z,15.46
2023-04-30T10:47:00.953Z,15.41
2023-04-30T10:48:00.970Z,15.50
2023-04-30T10:49:00.962Z,15.46
2023-04-30T10:50:00.992Z,15.53
2023-04-30T10:51:01.017Z,15.54
2023-04-30T10:52:01.039Z,15.62
2023-04-30T10:53:01.063Z,15.54
2023-04-30T10:54:01.094Z,15.49
2023-04-30T10:55:01.111Z,15.54
2023-04-30T10:56:01.128Z,15.59
2023-04-30T10:57:01.153Z,15.62
2023-04-30T10:58:01.180Z,15.68
2023-04-30T10:59:01.223Z,15.84
2023-04-30T11:00:01.231Z,15.74
2023-04-30T11:01:01.310Z,15.83
2023-04-30T11:02:01.349Z,15.90
2023-04-30T11:03:01.314Z,15.96
2023-04-30T11:04:01.341Z,16.04
2023-04-30T11:05:01.374Z,16.09
2023-04-30T11:06:01.405Z,16.20
2023-04-30T11:07:01.398Z,16.20
2023-04-30T11:08:01.424Z,16.11
2023-04-30T11:09:01.448Z,16.09
2023-04-30T11:10:01.473Z,16.04
2023-04-30T11:11:01.499Z,15.96
2023-04-30T11:12:01.525Z,16.02
2023-04-30T11:13:01.792Z,15.96
2023-04-30T11:14:01.930Z,15.96
2023-04-30T11:15:01.645Z,15.84
2023-04-30T11:16:01.639Z,15.80
2023-04-30T11:17:01.650Z,15.82
2023-04-30T11:18:01.749Z,15.82
2023-04-30T11:19:01.704Z,15.93
2023-04-30T11:20:01.733Z,15.92
2023-04-30T11:21:01.745Z,15.94
2023-04-30T11:22:01.773Z,16.04
2023-04-30T11:23:01.811Z,16.09
2023-04-30T11:24:01.828Z,16.12
2023-04-30T11:25:01.863Z,16.09
2023-04-30T11:26:01.876Z,16.11
2023-04-30T11:27:01.896Z,16.20
2023-04-30T11:28:01.916Z,16.09
2023-04-30T11:29:01.953Z,16.07
2023-04-30T11:30:01.987Z,16.23
2023-04-30T11:31:02.121Z,16.21
2023-04-30T11:32:02.268Z,16.24
2023-04-30T11:33:02.112Z,16.24
2023-04-30T11:34:02.076Z,16.14
2023-04-30T11:35:02.122Z,16.28
2023-04-30T11:36:02.140Z,16.27
2023-04-30T11:37:02.153Z,16.57
2023-04-30T11:38:02.166Z,16.41
2023-04-30T11:39:02.194Z,16.46
2023-04-30T11:40:02.227Z,16.49
2023-04-30T11:41:02.239Z,16.43
2023-04-30T11:42:02.265Z,16.46
2023-04-30T11:43:02.306Z,16.34
2023-04-30T11:44:02.320Z,16.39
2023-04-30T11:45:02.351Z,16.30
2023-04-30T11:46:02.375Z,16.38
2023-04-30T11:47:02.451Z,16.38
2023-04-30T11:48:02.497Z,16.33
2023-04-30T11:49:02.441Z,16.38
2023-04-30T11:50:02.468Z,16.38
2023-04-30T11:51:02.496Z,16.28
2023-04-30T11:52:02.516Z,16.30
2023-04-30T11:53:02.544Z,16.21
2023-04-30T11:54:02.570Z,16.21
2023-04-30T11:55:02.589Z,16.15
2023-04-30T11:56:02.624Z,16.25
2023-04-30T11:57:02.641Z,16.30
2023-04-30T11:58:02.665Z,16.27
2023-04-30T11:59:02.690Z,16.27
2023-04-30T12:00:02.711Z,16.35
2023-04-30T12:01:02.747Z,16.27
2023-04-30T12:02:02.804Z,16.21
2023-04-30T12:03:02.897Z,16.21
2023-04-30T12:04:02.908Z,16.21
2023-04-30T12:05:02.850Z,16.17
2023-04-30T12:06:02.893Z,16.27
2023-04-30T12:07:02.890Z,16.25
2023-04-30T12:08:02.915Z,16.35
2023-04-30T12:09:02.933Z,16.39
2023-04-30T12:10:02.973Z,16.39
2023-04-30T12:11:03.033Z,16.45
2023-04-30T12:12:03.011Z,16.43
2023-04-30T12:13:03.031Z,16.50
2023-04-30T12:14:03.069Z,16.46
2023-04-30T12:15:03.084Z,16.49
2023-04-30T12:16:03.117Z,16.52
2023-04-30T12:17:03.185Z,16.49
2023-04-30T12:18:03.312Z,16.53
2023-04-30T12:19:03.186Z,16.52
2023-04-30T12:20:03.209Z,16.52
2023-04-30T12:21:03.238Z,16.58
2023-04-30T12:22:03.261Z,16.58
2023-04-30T12:23:03.292Z,16.56
2023-04-30T12:24:03.755Z,16.48
2023-04-30T12:25:03.336Z,16.46
2023-04-30T12:26:03.353Z,16.52
2023-04-30T12:27:03.396Z,16.67
2023-04-30T12:28:03.411Z,16.71
2023-04-30T12:29:03.438Z,16.78
2023-04-30T12:30:03.500Z,16.76
2023-04-30T12:31:03.493Z,16.85
2023-04-30T12:32:03.603Z,16.79
2023-04-30T12:33:03.627Z,16.75
2023-04-30T12:34:03.559Z,16.79
2023-04-30T12:35:03.584Z,16.76
2023-04-30T12:36:03.608Z,16.64
2023-04-30T12:37:03.639Z,16.64
2023-04-30T12:38:03.669Z,16.70
2023-04-30T12:39:03.680Z,16.66
2023-04-30T12:40:03.709Z,16.58
2023-04-30T12:41:03.735Z,16.50
2023-04-30T12:42:03.759Z,16.52
2023-04-30T12:43:03.798Z,16.60
2023-04-30T12:44:03.809Z,16.64
2023-04-30T12:45:03.839Z,16.60
2023-04-30T12:46:03.893Z,16.64
2023-04-30T12:47:03.890Z,16.67
2023-04-30T12:48:03.967Z,16.73
2023-04-30T12:49:03.933Z,16.81
2023-04-30T12:50:04.051Z,16.73
2023-04-30T12:51:03.985Z,16.66
2023-04-30T12:52:04.029Z,16.66
2023-04-30T12:53:04.041Z,16.61
2023-04-30T12:54:04.055Z,16.60
2023-04-30T12:55:04.080Z,16.73
2023-04-30T12:56:04.111Z,16.60
2023-04-30T12:57:04.137Z,16.64
2023-04-30T12:58:04.159Z,16.70
2023-04-30T12:59:04.185Z,16.79
2023-04-30T13:00:04.213Z,16.76
2023-04-30T13:01:04.272Z,16.79
2023-04-30T13:02:04.266Z,16.91
2023-04-30T13:03:04.417Z,16.97